Report METAR

 

KSJC - San Jose, California, USA
Distance from station: NE 14km
Dati ricevuti: 29/02/2024 14:53
Parz. nuvoloso
Parz. nuvoloso
 Vento da SSE
Vento: SSE 15 km/h
Temperatura: 11°C
P.to Rugiada: 7°C
Umidità: 77%
Barometro: 1016.9 hPa
Nuvole: Parz. nuvoloso
Visibility: 16 km
Cloud details: Few Clouds 945 m
Parz. nuvoloso 2438 m
2024/02/29 13:53 KSJC 291353Z 15008KT 10SM FEW031 SCT080 11/07 A3003 RMK AO2 SLP167 T01110067
KNUQ - Moffett Nas/Mtn, California, USA
Distance from station: N 14km
Dati ricevuti: 29/02/2024 14:55
Molto nuvoloso
Molto nuvoloso
 Vento da SE
Vento: SE 6 km/h
Temperatura: 9°C
P.to Rugiada: 7°C
Umidità: 87%
Barometro: 1016.9 hPa
Nuvole: Molto nuvoloso
Visibility: 16 km
Cloud details: Molto nuvoloso 975 m
2024/02/29 13:55 KNUQ 291355Z AUTO 13003KT 10SM BKN032 09/07 A3003 RMK AO2
KPAO - Palo Alto, California, USA
Distance from station: NNO 23km
Dati ricevuti: 29/02/2024 05:47
DATI Obsoleti
Sereno
Sereno
 Vento da calmo
Vento: Calma
Temperatura: 10°C
P.to Rugiada: 7°C
Umidità: 82%
Barometro: 1016.9 hPa
Nuvole: Sereno
Visibility: 16 km
2024/02/29 04:47 KPAO 290447Z 00000KT 10SM SKC 10/07 A3003
 
KRHV - San Jose/Reid, California, USA
Distance from station: ENE 19km
Dati ricevuti: 29/02/2024 06:55
DATI Obsoleti
Sereno
Sereno
 Vento da S
Vento: S 15 km/h, Raffica: 28 km/h
Temperatura: 11°C
P.to Rugiada: 6°C
Umidità: 72%
Barometro: 1017.3 hPa
Nuvole: Sereno
Visibility: 16 km
2024/02/29 05:55 KRHV 290555Z 17008G15KT 10SM SKC 11/06 A3004 RMK LAST
KOAK - Oakland, California, USA
Distance from station: NNO 50km
Dati ricevuti: 29/02/2024 14:53
Coperto
Coperto
 Vento da S
Vento: S 20 km/h
Temperatura: 12°C
P.to Rugiada: 8°C
Umidità: 77%
Barometro: 1016.6 hPa
Nuvole: Coperto
Visibility: 16 km
Cloud details: Parz. nuvoloso 396 m
Coperto 640 m
2024/02/29 13:53 KOAK 291353Z 18011KT 10SM SCT013 OVC021 12/08 A3002 RMK AO2 SLP166 T01170083
KSQL - San Carlos Airpo, California, USA
Distance from station: NO 34km
Dati ricevuti: 29/02/2024 15:15
Parz. nuvoloso
Parz. nuvoloso
 Vento da calmo
Vento: Calma
Temperatura: 11°C
P.to Rugiada: 8°C
Umidità: 82%
Barometro: 1016.9 hPa
Nuvole: Parz. nuvoloso
Visibility: 16 km
Cloud details: Parz. nuvoloso 701 m
2024/02/29 14:15 KSQL 291415Z AUTO 00000KT 10SM SCT023 11/08 A3003 RMK AO2
 
KSFO - San Francisco, California, USA
Distance from station: NO 49km
Dati ricevuti: 29/02/2024 14:56
Molto nuvoloso
Molto nuvoloso
 Vento da S
Vento: S 22 km/h
Temperatura: 11°C
P.to Rugiada: 9°C
Umidità: 88%
Barometro: 1016.6 hPa
Nuvole: Molto nuvoloso
Visibility: 16 km
Cloud details: Few Clouds 457 m
Molto nuvoloso 610 m
Molto nuvoloso 823 m
2024/02/29 13:56 KSFO 291356Z 18012KT 10SM FEW015 BKN020 BKN027 11/09 A3002 RMK AO2 SLP165 T01110089 $
KE16 - San Martin, California, USA
Distance from station: ESE 43km
Dati ricevuti: 29/02/2024 14:55
Coperto
Coperto
 Vento da ESE
Vento: ESE 7 km/h
Temperatura: 10°C
Temperatura Vento: 9°C
P.to Rugiada: 8°C
Umidità: 88%
Barometro: 1018.3 hPa
Nuvole: Coperto
Visibility: 16 km
Cloud details: Molto nuvoloso 610 m
Coperto 823 m
2024/02/29 13:55 KE16 291355Z AUTO 12004KT 10SM BKN020 OVC027 10/08 A3007 RMK AO2
KWVI - Watsonville, California, USA
Distance from station: SSE 44km
Dati ricevuti: 29/02/2024 14:53
Coperto
Coperto
 Vento da calmo
Vento: Calma
Temperatura: 10°C
P.to Rugiada: 9°C
Umidità: 94%
Barometro: 1018.3 hPa
Nuvole: Coperto
Visibility: 16 km
Cloud details: Coperto 701 m
2024/02/29 13:53 KWVI 291353Z AUTO 00000KT 10SM OVC023 10/09 A3007 RMK AO2 SLP181 T01000089
 
KHAF - Half Moon Bay, California, USA
Distance from station: ONO 50km
Dati ricevuti: 29/02/2024 15:15
Mist, Coperto
Mist, Coperto
 Vento da S
Vento: S 20 km/h, Raffica: 31 km/h
Temperatura: 12°C
P.to Rugiada: 11°C
Umidità: 94%
Barometro: 1016.9 hPa
Summary: Mist
Nuvole: Coperto
Visibility: 8 km
Cloud details: Molto nuvoloso 366 m
Coperto 518 m
2024/02/29 14:15 KHAF 291415Z AUTO 19011G17KT 5SM BR BKN012 OVC017 12/11 A3003 RMK AO2
KHWD - Hayward, California, USA
Distance from station: N 44km
Dati ricevuti: 29/02/2024 14:54
Molto nuvoloso
Molto nuvoloso
 Vento da SE
Vento: SE 15 km/h
Temperatura: 11°C
P.to Rugiada: 7°C
Umidità: 77%
Barometro: 1016.6 hPa
Nuvole: Molto nuvoloso
Visibility: 16 km
Cloud details: Molto nuvoloso 823 m
2024/02/29 13:54 KHWD 291354Z 14008KT 10SM BKN027 11/07 A3002 RMK AO2 SLP175 T01110072
KLVK - Livermore, California, USA
Distance from station: NNE 51km
Dati ricevuti: 29/02/2024 14:53
Sereno
Sereno
 Vento da Variabile
Vento: Variabile 6 km/h
Temperatura: 10°C
P.to Rugiada: 6°C
Umidità: 76%
Barometro: 1016.3 hPa
Nuvole: Sereno
Visibility: 16 km
2024/02/29 13:53 KLVK 291353Z AUTO VRB03KT 10SM CLR 10/06 A3001 RMK AO2 SLP158 T01000056